logo
Search for airport 
image banner adimage banner adimage banner ad
image banner ad

OPIS - Islamabad Int'l

Located in Islamabad, Pakistan

ICAO - , IATA - ISB

Data provided by Airmate  

General information

Coordinates: N33°32'57" E72°49'32"
Elevation is 1761 feet MSL.
 
View others Airports in Punjab

Operational data

Special qualification required
Current time UTC:
Current local time:
Weather
METAR: OPIS 130630Z 27013KT 5000 -RA FEW015 SCT040 BKN100 16/16 Q1017 TEMPO 23015G35KT 2000 TSRA FEW030CB
TAF: TAF OPIS 122310Z 1300/1406 31006G16KT 5000 FU FEW040 BKN100 TEMPO 1300/1304 31015G30KT 4000 TSRA FEW030CB SCT040 OVC100 BECMG 1310/1314 09008G18KT 5000 -RA FU FEW040 BKN100 TEMPO 1322/1404 09015G25KT 3000 TSRA FEW030CB SCT040 OVC100
View NOTAMs / SUP AIP / TFR affecting this airport [VIEW]
Communications frequencies: [VIEW]

Runways:

RWY identifierQFULength (ft)Width (ft)SurfaceLDA (ft)
10R101°12001197UNK
28L281°12001197UNK
10L101°12001148UNK
28R281°12001148UNK

Airport contact information

Address: Islamabad Pakistan

Satellite view of OPIS